sensor_id;sensor_type;location;lat;lon;timestamp;P1;durP1;ratioP1;P2;durP2;ratioP2
64795;SDS011;51229;51.980;6.722;2022-08-21T00:00:40;12.48;;;6.53;;
64795;SDS011;51229;51.980;6.722;2022-08-21T00:03:07;14.18;;;6.32;;
64795;SDS011;51229;51.980;6.722;2022-08-21T00:05:36;11.73;;;7.05;;
64795;SDS011;51229;51.980;6.722;2022-08-21T00:08:04;10.75;;;6.82;;
64795;SDS011;51229;51.980;6.722;2022-08-21T00:10:30;12.88;;;6.68;;
64795;SDS011;51229;51.980;6.722;2022-08-21T00:12:56;12.85;;;6.07;;
64795;SDS011;51229;51.980;6.722;2022-08-21T00:15:23;9.30;;;5.80;;
64795;SDS011;51229;51.980;6.722;2022-08-21T00:17:54;10.43;;;4.93;;
64795;SDS011;51229;51.980;6.722;2022-08-21T00:20:20;6.85;;;4.28;;
64795;SDS011;51229;51.980;6.722;2022-08-21T00:22:47;8.10;;;5.40;;
64795;SDS011;51229;51.980;6.722;2022-08-21T00:25:13;9.00;;;5.18;;
64795;SDS011;51229;51.980;6.722;2022-08-21T00:27:40;8.30;;;5.20;;
64795;SDS011;51229;51.980;6.722;2022-08-21T00:30:12;10.35;;;5.47;;
64795;SDS011;51229;51.980;6.722;2022-08-21T00:32:39;9.25;;;5.00;;
64795;SDS011;51229;51.980;6.722;2022-08-21T00:35:10;9.23;;;5.13;;
64795;SDS011;51229;51.980;6.722;2022-08-21T00:40:06;13.23;;;5.45;;
64795;SDS011;51229;51.980;6.722;2022-08-21T00:42:34;6.55;;;4.70;;
64795;SDS011;51229;51.980;6.722;2022-08-21T00:45:00;10.35;;;5.15;;
64795;SDS011;51229;51.980;6.722;2022-08-21T00:47:27;8.02;;;4.80;;
64795;SDS011;51229;51.980;6.722;2022-08-21T00:49:53;10.18;;;4.90;;
64795;SDS011;51229;51.980;6.722;2022-08-21T00:52:19;12.32;;;5.22;;
64795;SDS011;51229;51.980;6.722;2022-08-21T00:54:48;10.25;;;4.97;;
64795;SDS011;51229;51.980;6.722;2022-08-21T00:57:17;11.50;;;5.00;;
64795;SDS011;51229;51.980;6.722;2022-08-21T00:59:48;9.27;;;5.25;;
64795;SDS011;51229;51.980;6.722;2022-08-21T01:02:16;8.43;;;5.38;;
64795;SDS011;51229;51.980;6.722;2022-08-21T01:04:43;8.93;;;5.40;;
64795;SDS011;51229;51.980;6.722;2022-08-21T01:07:10;8.93;;;4.90;;
64795;SDS011;51229;51.980;6.722;2022-08-21T01:09:35;7.95;;;4.78;;
64795;SDS011;51229;51.980;6.722;2022-08-21T01:12:02;8.65;;;5.40;;
64795;SDS011;51229;51.980;6.722;2022-08-21T01:14:28;10.07;;;5.72;;
64795;SDS011;51229;51.980;6.722;2022-08-21T01:16:55;9.25;;;5.70;;
64795;SDS011;51229;51.980;6.722;2022-08-21T01:19:23;7.35;;;5.53;;
64795;SDS011;51229;51.980;6.722;2022-08-21T01:21:49;8.48;;;5.22;;
64795;SDS011;51229;51.980;6.722;2022-08-21T01:24:15;8.00;;;5.30;;
64795;SDS011;51229;51.980;6.722;2022-08-21T01:26:41;9.27;;;5.13;;
64795;SDS011;51229;51.980;6.722;2022-08-21T01:29:12;8.98;;;4.97;;
64795;SDS011;51229;51.980;6.722;2022-08-21T01:31:44;9.02;;;5.25;;
64795;SDS011;51229;51.980;6.722;2022-08-21T01:34:10;7.82;;;5.10;;
64795;SDS011;51229;51.980;6.722;2022-08-21T01:36:36;8.55;;;5.25;;
64795;SDS011;51229;51.980;6.722;2022-08-21T01:39:03;8.25;;;4.90;;
64795;SDS011;51229;51.980;6.722;2022-08-21T01:41:29;9.20;;;5.13;;
64795;SDS011;51229;51.980;6.722;2022-08-21T01:43:55;7.78;;;4.97;;
64795;SDS011;51229;51.980;6.722;2022-08-21T01:46:21;9.32;;;5.35;;
64795;SDS011;51229;51.980;6.722;2022-08-21T01:48:46;8.70;;;4.93;;
64795;SDS011;51229;51.980;6.722;2022-08-21T01:51:12;8.93;;;5.22;;
64795;SDS011;51229;51.980;6.722;2022-08-21T01:53:39;8.57;;;4.95;;
64795;SDS011;51229;51.980;6.722;2022-08-21T01:56:05;8.25;;;5.10;;
64795;SDS011;51229;51.980;6.722;2022-08-21T01:58:33;6.95;;;4.70;;
64795;SDS011;51229;51.980;6.722;2022-08-21T02:00:59;8.45;;;4.70;;
64795;SDS011;51229;51.980;6.722;2022-08-21T02:03:27;10.32;;;5.40;;
64795;SDS011;51229;51.980;6.722;2022-08-21T02:05:53;8.18;;;5.05;;
64795;SDS011;51229;51.980;6.722;2022-08-21T02:08:19;9.38;;;5.35;;
64795;SDS011;51229;51.980;6.722;2022-08-21T02:10:48;6.63;;;4.90;;
64795;SDS011;51229;51.980;6.722;2022-08-21T02:13:15;8.23;;;5.38;;
64795;SDS011;51229;51.980;6.722;2022-08-21T02:15:40;7.43;;;5.25;;
64795;SDS011;51229;51.980;6.722;2022-08-21T02:18:06;9.50;;;5.40;;
64795;SDS011;51229;51.980;6.722;2022-08-21T02:20:42;8.77;;;5.25;;
64795;SDS011;51229;51.980;6.722;2022-08-21T02:23:13;12.25;;;5.50;;
64795;SDS011;51229;51.980;6.722;2022-08-21T02:25:39;10.25;;;5.05;;
64795;SDS011;51229;51.980;6.722;2022-08-21T02:28:06;8.85;;;5.25;;
64795;SDS011;51229;51.980;6.722;2022-08-21T02:30:38;8.73;;;4.95;;
64795;SDS011;51229;51.980;6.722;2022-08-21T02:33:06;9.18;;;5.18;;
64795;SDS011;51229;51.980;6.722;2022-08-21T02:35:34;8.27;;;4.90;;
64795;SDS011;51229;51.980;6.722;2022-08-21T02:38:03;7.68;;;5.55;;
64795;SDS011;51229;51.980;6.722;2022-08-21T02:40:32;7.90;;;5.18;;
64795;SDS011;51229;51.980;6.722;2022-08-21T02:43:00;11.02;;;5.90;;
64795;SDS011;51229;51.980;6.722;2022-08-21T02:45:28;9.88;;;5.55;;
64795;SDS011;51229;51.980;6.722;2022-08-21T02:48:01;8.10;;;4.82;;
64795;SDS011;51229;51.980;6.722;2022-08-21T02:50:34;8.63;;;4.93;;
64795;SDS011;51229;51.980;6.722;2022-08-21T02:53:03;9.82;;;5.05;;
64795;SDS011;51229;51.980;6.722;2022-08-21T02:55:29;7.70;;;5.22;;
64795;SDS011;51229;51.980;6.722;2022-08-21T02:57:57;8.00;;;4.90;;
64795;SDS011;51229;51.980;6.722;2022-08-21T03:00:24;10.32;;;5.50;;
64795;SDS011;51229;51.980;6.722;2022-08-21T03:02:51;9.55;;;5.45;;
64795;SDS011;51229;51.980;6.722;2022-08-21T03:05:18;7.53;;;5.38;;
64795;SDS011;51229;51.980;6.722;2022-08-21T03:07:45;11.07;;;5.18;;
64795;SDS011;51229;51.980;6.722;2022-08-21T03:10:12;8.27;;;5.43;;
64795;SDS011;51229;51.980;6.722;2022-08-21T03:12:38;8.63;;;5.75;;
64795;SDS011;51229;51.980;6.722;2022-08-21T03:15:04;8.15;;;5.55;;
64795;SDS011;51229;51.980;6.722;2022-08-21T03:17:32;8.27;;;5.50;;
64795;SDS011;51229;51.980;6.722;2022-08-21T03:19:59;8.57;;;5.53;;
64795;SDS011;51229;51.980;6.722;2022-08-21T03:22:25;9.13;;;5.93;;
64795;SDS011;51229;51.980;6.722;2022-08-21T03:24:51;9.27;;;5.32;;
64795;SDS011;51229;51.980;6.722;2022-08-21T03:27:16;9.70;;;5.63;;
64795;SDS011;51229;51.980;6.722;2022-08-21T03:29:42;7.75;;;5.15;;
64795;SDS011;51229;51.980;6.722;2022-08-21T03:32:08;8.90;;;5.70;;
64795;SDS011;51229;51.980;6.722;2022-08-21T03:34:35;8.32;;;5.75;;
64795;SDS011;51229;51.980;6.722;2022-08-21T03:37:04;8.90;;;5.80;;
64795;SDS011;51229;51.980;6.722;2022-08-21T03:39:33;8.45;;;5.68;;
64795;SDS011;51229;51.980;6.722;2022-08-21T03:41:59;8.13;;;5.65;;
64795;SDS011;51229;51.980;6.722;2022-08-21T03:44:26;8.50;;;5.60;;
64795;SDS011;51229;51.980;6.722;2022-08-21T03:46:54;8.77;;;5.68;;
64795;SDS011;51229;51.980;6.722;2022-08-21T03:49:20;7.00;;;4.90;;
64795;SDS011;51229;51.980;6.722;2022-08-21T03:51:46;8.63;;;5.60;;
64795;SDS011;51229;51.980;6.722;2022-08-21T03:54:11;8.15;;;5.50;;
64795;SDS011;51229;51.980;6.722;2022-08-21T03:56:37;9.20;;;5.30;;
64795;SDS011;51229;51.980;6.722;2022-08-21T03:59:04;7.13;;;4.95;;
64795;SDS011;51229;51.980;6.722;2022-08-21T04:01:30;7.97;;;4.82;;
64795;SDS011;51229;51.980;6.722;2022-08-21T04:03:56;8.57;;;5.80;;
64795;SDS011;51229;51.980;6.722;2022-08-21T04:06:22;6.85;;;5.18;;
64795;SDS011;51229;51.980;6.722;2022-08-21T04:08:48;9.18;;;6.13;;
64795;SDS011;51229;51.980;6.722;2022-08-21T04:11:14;7.00;;;5.40;;
64795;SDS011;51229;51.980;6.722;2022-08-21T04:13:40;8.07;;;5.68;;
64795;SDS011;51229;51.980;6.722;2022-08-21T04:16:06;10.18;;;5.35;;
64795;SDS011;51229;51.980;6.722;2022-08-21T04:18:33;6.25;;;5.18;;
64795;SDS011;51229;51.980;6.722;2022-08-21T04:20:58;7.78;;;5.47;;
64795;SDS011;51229;51.980;6.722;2022-08-21T04:23:26;9.20;;;5.28;;
64795;SDS011;51229;51.980;6.722;2022-08-21T04:25:53;8.10;;;5.55;;
64795;SDS011;51229;51.980;6.722;2022-08-21T04:28:20;6.43;;;4.25;;
64795;SDS011;51229;51.980;6.722;2022-08-21T04:30:46;7.65;;;5.40;;
64795;SDS011;51229;51.980;6.722;2022-08-21T04:33:12;6.60;;;4.50;;
64795;SDS011;51229;51.980;6.722;2022-08-21T04:35:37;8.10;;;5.00;;
64795;SDS011;51229;51.980;6.722;2022-08-21T04:38:03;9.00;;;5.20;;
64795;SDS011;51229;51.980;6.722;2022-08-21T04:40:29;8.38;;;5.72;;
64795;SDS011;51229;51.980;6.722;2022-08-21T04:42:56;9.43;;;5.95;;
64795;SDS011;51229;51.980;6.722;2022-08-21T04:45:30;8.30;;;5.40;;
64795;SDS011;51229;51.980;6.722;2022-08-21T04:50:36;7.65;;;5.38;;
64795;SDS011;51229;51.980;6.722;2022-08-21T04:53:08;8.88;;;5.50;;
64795;SDS011;51229;51.980;6.722;2022-08-21T04:55:38;7.78;;;5.50;;
64795;SDS011;51229;51.980;6.722;2022-08-21T04:58:06;9.23;;;5.53;;
64795;SDS011;51229;51.980;6.722;2022-08-21T05:00:34;8.68;;;5.78;;
64795;SDS011;51229;51.980;6.722;2022-08-21T05:03:00;8.30;;;5.75;;
64795;SDS011;51229;51.980;6.722;2022-08-21T05:05:28;8.25;;;4.88;;
64795;SDS011;51229;51.980;6.722;2022-08-21T05:07:54;9.75;;;5.78;;
64795;SDS011;51229;51.980;6.722;2022-08-21T05:10:22;8.85;;;5.55;;
64795;SDS011;51229;51.980;6.722;2022-08-21T05:12:47;8.75;;;5.18;;
64795;SDS011;51229;51.980;6.722;2022-08-21T05:15:13;8.95;;;5.95;;
64795;SDS011;51229;51.980;6.722;2022-08-21T05:17:40;7.90;;;5.43;;
64795;SDS011;51229;51.980;6.722;2022-08-21T05:20:06;10.23;;;6.15;;
64795;SDS011;51229;51.980;6.722;2022-08-21T05:22:33;7.68;;;5.07;;
64795;SDS011;51229;51.980;6.722;2022-08-21T05:24:58;9.43;;;5.50;;
64795;SDS011;51229;51.980;6.722;2022-08-21T05:27:24;9.85;;;5.97;;
64795;SDS011;51229;51.980;6.722;2022-08-21T05:29:49;9.77;;;5.95;;
64795;SDS011;51229;51.980;6.722;2022-08-21T05:32:15;9.55;;;6.28;;
64795;SDS011;51229;51.980;6.722;2022-08-21T05:34:41;7.35;;;5.07;;
64795;SDS011;51229;51.980;6.722;2022-08-21T05:37:06;9.25;;;6.25;;
64795;SDS011;51229;51.980;6.722;2022-08-21T05:39:34;11.50;;;6.80;;
64795;SDS011;51229;51.980;6.722;2022-08-21T05:42:00;9.15;;;6.80;;
64795;SDS011;51229;51.980;6.722;2022-08-21T05:44:26;10.43;;;6.53;;
64795;SDS011;51229;51.980;6.722;2022-08-21T05:46:51;9.98;;;6.13;;
64795;SDS011;51229;51.980;6.722;2022-08-21T05:49:17;9.63;;;6.60;;
64795;SDS011;51229;51.980;6.722;2022-08-21T05:51:42;10.35;;;6.75;;
64795;SDS011;51229;51.980;6.722;2022-08-21T05:54:08;10.35;;;7.63;;
64795;SDS011;51229;51.980;6.722;2022-08-21T05:56:34;11.23;;;7.57;;
64795;SDS011;51229;51.980;6.722;2022-08-21T05:58:59;9.75;;;6.65;;
64795;SDS011;51229;51.980;6.722;2022-08-21T06:01:25;9.57;;;6.25;;
64795;SDS011;51229;51.980;6.722;2022-08-21T06:03:51;11.52;;;6.97;;
64795;SDS011;51229;51.980;6.722;2022-08-21T06:06:17;9.30;;;6.35;;
64795;SDS011;51229;51.980;6.722;2022-08-21T06:08:42;10.63;;;7.55;;
64795;SDS011;51229;51.980;6.722;2022-08-21T06:11:08;11.18;;;7.10;;
64795;SDS011;51229;51.980;6.722;2022-08-21T06:13:35;9.48;;;6.60;;
64795;SDS011;51229;51.980;6.722;2022-08-21T06:16:11;10.02;;;7.38;;
64795;SDS011;51229;51.980;6.722;2022-08-21T06:18:38;11.10;;;6.68;;
64795;SDS011;51229;51.980;6.722;2022-08-21T06:21:05;10.18;;;6.60;;
64795;SDS011;51229;51.980;6.722;2022-08-21T06:23:31;8.75;;;6.45;;
64795;SDS011;51229;51.980;6.722;2022-08-21T06:25:59;9.85;;;6.50;;
64795;SDS011;51229;51.980;6.722;2022-08-21T06:28:25;10.50;;;6.00;;
64795;SDS011;51229;51.980;6.722;2022-08-21T06:30:51;10.57;;;6.40;;
64795;SDS011;51229;51.980;6.722;2022-08-21T06:33:17;8.07;;;5.72;;
64795;SDS011;51229;51.980;6.722;2022-08-21T06:35:43;8.95;;;5.90;;
64795;SDS011;51229;51.980;6.722;2022-08-21T06:38:09;9.57;;;5.65;;
64795;SDS011;51229;51.980;6.722;2022-08-21T06:40:35;10.40;;;5.97;;
64795;SDS011;51229;51.980;6.722;2022-08-21T06:43:10;9.60;;;5.55;;
64795;SDS011;51229;51.980;6.722;2022-08-21T06:45:37;9.15;;;6.15;;
64795;SDS011;51229;51.980;6.722;2022-08-21T06:48:04;8.43;;;5.40;;
64795;SDS011;51229;51.980;6.722;2022-08-21T06:50:31;7.78;;;4.97;;
64795;SDS011;51229;51.980;6.722;2022-08-21T06:53:09;10.07;;;6.18;;
64795;SDS011;51229;51.980;6.722;2022-08-21T06:55:37;12.50;;;6.18;;
64795;SDS011;51229;51.980;6.722;2022-08-21T06:58:04;9.80;;;6.38;;
64795;SDS011;51229;51.980;6.722;2022-08-21T07:00:31;10.55;;;5.97;;
64795;SDS011;51229;51.980;6.722;2022-08-21T07:02:57;11.15;;;6.82;;
64795;SDS011;51229;51.980;6.722;2022-08-21T07:05:27;11.90;;;7.05;;
64795;SDS011;51229;51.980;6.722;2022-08-21T07:07:53;9.60;;;7.15;;
64795;SDS011;51229;51.980;6.722;2022-08-21T07:10:19;10.80;;;6.57;;
64795;SDS011;51229;51.980;6.722;2022-08-21T07:12:45;11.70;;;6.95;;
64795;SDS011;51229;51.980;6.722;2022-08-21T07:15:10;11.82;;;6.50;;
64795;SDS011;51229;51.980;6.722;2022-08-21T07:17:36;13.52;;;6.43;;
64795;SDS011;51229;51.980;6.722;2022-08-21T07:20:03;11.13;;;6.32;;
64795;SDS011;51229;51.980;6.722;2022-08-21T07:22:29;11.95;;;6.53;;
64795;SDS011;51229;51.980;6.722;2022-08-21T07:24:55;11.65;;;5.88;;
64795;SDS011;51229;51.980;6.722;2022-08-21T07:27:21;9.85;;;6.40;;
64795;SDS011;51229;51.980;6.722;2022-08-21T07:29:47;8.95;;;6.50;;
64795;SDS011;51229;51.980;6.722;2022-08-21T07:32:12;13.73;;;6.28;;
64795;SDS011;51229;51.980;6.722;2022-08-21T07:34:40;9.35;;;6.00;;
64795;SDS011;51229;51.980;6.722;2022-08-21T07:37:06;9.23;;;6.53;;
64795;SDS011;51229;51.980;6.722;2022-08-21T07:39:32;10.32;;;6.88;;
64795;SDS011;51229;51.980;6.722;2022-08-21T07:41:58;10.40;;;6.95;;
64795;SDS011;51229;51.980;6.722;2022-08-21T07:44:23;11.07;;;6.63;;
64795;SDS011;51229;51.980;6.722;2022-08-21T07:46:49;9.88;;;6.50;;
64795;SDS011;51229;51.980;6.722;2022-08-21T07:49:14;8.93;;;6.80;;
64795;SDS011;51229;51.980;6.722;2022-08-21T07:51:40;8.85;;;6.07;;
64795;SDS011;51229;51.980;6.722;2022-08-21T07:54:05;10.43;;;7.38;;
64795;SDS011;51229;51.980;6.722;2022-08-21T07:56:31;9.43;;;6.30;;
64795;SDS011;51229;51.980;6.722;2022-08-21T07:58:57;10.18;;;5.53;;
64795;SDS011;51229;51.980;6.722;2022-08-21T08:01:23;11.07;;;6.90;;
64795;SDS011;51229;51.980;6.722;2022-08-21T08:03:48;9.35;;;6.47;;
64795;SDS011;51229;51.980;6.722;2022-08-21T08:06:14;9.15;;;5.95;;
64795;SDS011;51229;51.980;6.722;2022-08-21T08:08:42;10.02;;;6.50;;
64795;SDS011;51229;51.980;6.722;2022-08-21T08:11:08;9.75;;;6.68;;
64795;SDS011;51229;51.980;6.722;2022-08-21T08:13:38;11.35;;;7.45;;
64795;SDS011;51229;51.980;6.722;2022-08-21T08:16:07;10.52;;;6.57;;
64795;SDS011;51229;51.980;6.722;2022-08-21T08:18:33;10.82;;;6.18;;
64795;SDS011;51229;51.980;6.722;2022-08-21T08:20:59;10.52;;;5.07;;
64795;SDS011;51229;51.980;6.722;2022-08-21T08:23:24;9.23;;;4.50;;
64795;SDS011;51229;51.980;6.722;2022-08-21T08:25:50;8.77;;;5.18;;
64795;SDS011;51229;51.980;6.722;2022-08-21T08:28:16;7.50;;;4.10;;
64795;SDS011;51229;51.980;6.722;2022-08-21T08:30:41;10.20;;;4.20;;
64795;SDS011;51229;51.980;6.722;2022-08-21T08:33:08;7.80;;;3.97;;
64795;SDS011;51229;51.980;6.722;2022-08-21T08:35:34;8.75;;;3.70;;
64795;SDS011;51229;51.980;6.722;2022-08-21T08:38:00;8.10;;;4.28;;
64795;SDS011;51229;51.980;6.722;2022-08-21T08:40:30;9.13;;;3.78;;
64795;SDS011;51229;51.980;6.722;2022-08-21T08:43:00;6.25;;;3.30;;
64795;SDS011;51229;51.980;6.722;2022-08-21T08:45:26;8.23;;;2.92;;
64795;SDS011;51229;51.980;6.722;2022-08-21T08:47:56;7.35;;;2.83;;
64795;SDS011;51229;51.980;6.722;2022-08-21T08:53:00;6.90;;;2.50;;
64795;SDS011;51229;51.980;6.722;2022-08-21T08:55:35;5.68;;;2.55;;
64795;SDS011;51229;51.980;6.722;2022-08-21T08:58:05;6.15;;;2.05;;
64795;SDS011;51229;51.980;6.722;2022-08-21T09:00:33;5.35;;;1.98;;
64795;SDS011;51229;51.980;6.722;2022-08-21T09:03:00;5.05;;;2.20;;
64795;SDS011;51229;51.980;6.722;2022-08-21T09:11:04;4.95;;;2.20;;
64795;SDS011;51229;51.980;6.722;2022-08-21T09:13:41;4.15;;;2.10;;
64795;SDS011;51229;51.980;6.722;2022-08-21T09:16:31;6.78;;;2.78;;
64795;SDS011;51229;51.980;6.722;2022-08-21T09:22:08;7.60;;;2.67;;
64795;SDS011;51229;51.980;6.722;2022-08-21T09:27:33;7.03;;;2.90;;
64795;SDS011;51229;51.980;6.722;2022-08-21T09:29:59;5.78;;;2.60;;
64795;SDS011;51229;51.980;6.722;2022-08-21T09:32:27;4.95;;;2.22;;
64795;SDS011;51229;51.980;6.722;2022-08-21T09:34:58;6.38;;;2.25;;
64795;SDS011;51229;51.980;6.722;2022-08-21T09:37:44;6.28;;;2.03;;
64795;SDS011;51229;51.980;6.722;2022-08-21T09:45:39;8.43;;;2.10;;
64795;SDS011;51229;51.980;6.722;2022-08-21T09:48:14;4.30;;;1.58;;
64795;SDS011;51229;51.980;6.722;2022-08-21T09:50:43;6.03;;;2.38;;
64795;SDS011;51229;51.980;6.722;2022-08-21T09:53:15;7.03;;;2.33;;
64795;SDS011;51229;51.980;6.722;2022-08-21T09:55:56;6.55;;;1.98;;
64795;SDS011;51229;51.980;6.722;2022-08-21T09:58:45;10.82;;;2.65;;
64795;SDS011;51229;51.980;6.722;2022-08-21T10:01:21;7.57;;;2.25;;
64795;SDS011;51229;51.980;6.722;2022-08-21T10:03:48;10.95;;;2.45;;
64795;SDS011;51229;51.980;6.722;2022-08-21T10:06:26;9.95;;;2.17;;
64795;SDS011;51229;51.980;6.722;2022-08-21T10:09:03;5.13;;;1.85;;
64795;SDS011;51229;51.980;6.722;2022-08-21T10:11:34;5.55;;;1.90;;
64795;SDS011;51229;51.980;6.722;2022-08-21T10:14:06;4.45;;;1.70;;
64795;SDS011;51229;51.980;6.722;2022-08-21T10:17:03;7.78;;;2.13;;
64795;SDS011;51229;51.980;6.722;2022-08-21T10:19:41;5.72;;;2.47;;
64795;SDS011;51229;51.980;6.722;2022-08-21T10:43:52;8.55;;;2.80;;
64795;SDS011;51229;51.980;6.722;2022-08-21T10:46:43;5.70;;;2.40;;
64795;SDS011;51229;51.980;6.722;2022-08-21T10:49:37;7.30;;;2.35;;
64795;SDS011;51229;51.980;6.722;2022-08-21T10:55:02;6.18;;;2.40;;
64795;SDS011;51229;51.980;6.722;2022-08-21T10:57:32;5.43;;;2.20;;
64795;SDS011;51229;51.980;6.722;2022-08-21T11:00:06;5.93;;;2.25;;
64795;SDS011;51229;51.980;6.722;2022-08-21T11:02:40;7.28;;;2.38;;
64795;SDS011;51229;51.980;6.722;2022-08-21T11:07:55;6.47;;;2.50;;
64795;SDS011;51229;51.980;6.722;2022-08-21T11:10:26;6.10;;;2.63;;
64795;SDS011;51229;51.980;6.722;2022-08-21T11:12:58;5.90;;;2.38;;
64795;SDS011;51229;51.980;6.722;2022-08-21T11:15:37;6.85;;;2.40;;
64795;SDS011;51229;51.980;6.722;2022-08-21T11:18:36;7.45;;;2.20;;
64795;SDS011;51229;51.980;6.722;2022-08-21T11:23:45;5.72;;;2.20;;
64795;SDS011;51229;51.980;6.722;2022-08-21T11:26:24;5.20;;;2.17;;
64795;SDS011;51229;51.980;6.722;2022-08-21T11:29:12;5.00;;;2.13;;
64795;SDS011;51229;51.980;6.722;2022-08-21T11:32:01;5.63;;;1.90;;
64795;SDS011;51229;51.980;6.722;2022-08-21T11:37:35;6.03;;;2.20;;
64795;SDS011;51229;51.980;6.722;2022-08-21T11:45:52;5.55;;;2.05;;
64795;SDS011;51229;51.980;6.722;2022-08-21T11:51:14;6.32;;;2.00;;
64795;SDS011;51229;51.980;6.722;2022-08-21T11:53:47;5.82;;;1.70;;
64795;SDS011;51229;51.980;6.722;2022-08-21T11:56:25;4.80;;;1.75;;
64795;SDS011;51229;51.980;6.722;2022-08-21T11:58:59;5.78;;;2.00;;
64795;SDS011;51229;51.980;6.722;2022-08-21T12:01:40;8.27;;;2.10;;
64795;SDS011;51229;51.980;6.722;2022-08-21T12:06:42;6.95;;;2.03;;
64795;SDS011;51229;51.980;6.722;2022-08-21T12:09:28;6.35;;;2.05;;
64795;SDS011;51229;51.980;6.722;2022-08-21T12:12:10;4.28;;;1.80;;
64795;SDS011;51229;51.980;6.722;2022-08-21T12:17:58;5.75;;;1.83;;
64795;SDS011;51229;51.980;6.722;2022-08-21T12:25:38;6.53;;;2.10;;
64795;SDS011;51229;51.980;6.722;2022-08-21T12:28:23;6.57;;;1.90;;
64795;SDS011;51229;51.980;6.722;2022-08-21T12:30:50;6.00;;;2.13;;
64795;SDS011;51229;51.980;6.722;2022-08-21T12:33:32;7.43;;;2.38;;
64795;SDS011;51229;51.980;6.722;2022-08-21T12:36:03;5.55;;;1.83;;
64795;SDS011;51229;51.980;6.722;2022-08-21T12:41:14;5.55;;;2.05;;
64795;SDS011;51229;51.980;6.722;2022-08-21T12:43:46;4.10;;;1.80;;
64795;SDS011;51229;51.980;6.722;2022-08-21T12:46:17;4.88;;;1.92;;
64795;SDS011;51229;51.980;6.722;2022-08-21T12:48:57;5.63;;;1.95;;
64795;SDS011;51229;51.980;6.722;2022-08-21T12:51:29;4.82;;;1.92;;
64795;SDS011;51229;51.980;6.722;2022-08-21T12:54:21;8.25;;;2.10;;
64795;SDS011;51229;51.980;6.722;2022-08-21T12:57:04;4.78;;;1.83;;
64795;SDS011;51229;51.980;6.722;2022-08-21T12:59:31;5.13;;;1.70;;
64795;SDS011;51229;51.980;6.722;2022-08-21T13:01:58;5.25;;;1.70;;
64795;SDS011;51229;51.980;6.722;2022-08-21T13:04:38;5.82;;;1.83;;
64795;SDS011;51229;51.980;6.722;2022-08-21T13:07:06;5.85;;;2.13;;
64795;SDS011;51229;51.980;6.722;2022-08-21T13:09:40;4.95;;;1.70;;
64795;SDS011;51229;51.980;6.722;2022-08-21T13:12:17;7.25;;;1.77;;
64795;SDS011;51229;51.980;6.722;2022-08-21T13:14:45;4.28;;;1.70;;
64795;SDS011;51229;51.980;6.722;2022-08-21T13:17:18;4.05;;;1.70;;
64795;SDS011;51229;51.980;6.722;2022-08-21T13:19:52;6.80;;;1.80;;
64795;SDS011;51229;51.980;6.722;2022-08-21T13:22:19;6.07;;;1.83;;
64795;SDS011;51229;51.980;6.722;2022-08-21T13:24:46;4.40;;;1.85;;
64795;SDS011;51229;51.980;6.722;2022-08-21T13:27:26;4.95;;;1.77;;
64795;SDS011;51229;51.980;6.722;2022-08-21T13:30:00;5.43;;;1.80;;
64795;SDS011;51229;51.980;6.722;2022-08-21T13:32:29;4.47;;;1.60;;
64795;SDS011;51229;51.980;6.722;2022-08-21T13:34:58;3.80;;;1.42;;
64795;SDS011;51229;51.980;6.722;2022-08-21T13:37:31;4.55;;;1.65;;
64795;SDS011;51229;51.980;6.722;2022-08-21T13:39:57;5.30;;;1.73;;
64795;SDS011;51229;51.980;6.722;2022-08-21T13:42:23;4.45;;;1.90;;
64795;SDS011;51229;51.980;6.722;2022-08-21T13:44:50;4.60;;;1.50;;
64795;SDS011;51229;51.980;6.722;2022-08-21T13:47:19;5.20;;;1.60;;
64795;SDS011;51229;51.980;6.722;2022-08-21T13:49:46;5.63;;;1.42;;
64795;SDS011;51229;51.980;6.722;2022-08-21T13:52:15;4.55;;;1.80;;
64795;SDS011;51229;51.980;6.722;2022-08-21T13:54:43;4.50;;;1.70;;
64795;SDS011;51229;51.980;6.722;2022-08-21T13:57:19;5.03;;;1.67;;
64795;SDS011;51229;51.980;6.722;2022-08-21T13:59:50;4.22;;;1.60;;
64795;SDS011;51229;51.980;6.722;2022-08-21T14:02:20;3.97;;;1.60;;
64795;SDS011;51229;51.980;6.722;2022-08-21T14:04:56;6.55;;;2.08;;
64795;SDS011;51229;51.980;6.722;2022-08-21T14:07:25;5.35;;;1.60;;
64795;SDS011;51229;51.980;6.722;2022-08-21T14:09:56;6.68;;;1.70;;
64795;SDS011;51229;51.980;6.722;2022-08-21T14:12:32;7.07;;;1.60;;
64795;SDS011;51229;51.980;6.722;2022-08-21T14:15:24;4.45;;;1.58;;
64795;SDS011;51229;51.980;6.722;2022-08-21T14:17:53;6.05;;;1.85;;
64795;SDS011;51229;51.980;6.722;2022-08-21T14:22:58;6.13;;;1.65;;
64795;SDS011;51229;51.980;6.722;2022-08-21T14:27:51;3.65;;;1.52;;
64795;SDS011;51229;51.980;6.722;2022-08-21T14:30:26;3.25;;;1.42;;
64795;SDS011;51229;51.980;6.722;2022-08-21T14:32:52;4.95;;;1.67;;
64795;SDS011;51229;51.980;6.722;2022-08-21T14:35:18;8.52;;;1.80;;
64795;SDS011;51229;51.980;6.722;2022-08-21T14:37:46;5.78;;;1.60;;
64795;SDS011;51229;51.980;6.722;2022-08-21T14:40:15;5.00;;;1.80;;
64795;SDS011;51229;51.980;6.722;2022-08-21T14:42:42;6.78;;;1.65;;
64795;SDS011;51229;51.980;6.722;2022-08-21T14:45:16;5.43;;;1.52;;
64795;SDS011;51229;51.980;6.722;2022-08-21T14:47:51;5.10;;;1.60;;
64795;SDS011;51229;51.980;6.722;2022-08-21T14:50:17;3.95;;;1.40;;
64795;SDS011;51229;51.980;6.722;2022-08-21T14:52:43;3.67;;;1.48;;
64795;SDS011;51229;51.980;6.722;2022-08-21T14:55:10;5.55;;;1.60;;
64795;SDS011;51229;51.980;6.722;2022-08-21T14:57:44;3.50;;;1.40;;
64795;SDS011;51229;51.980;6.722;2022-08-21T15:00:13;3.95;;;1.65;;
64795;SDS011;51229;51.980;6.722;2022-08-21T15:02:42;5.65;;;1.60;;
64795;SDS011;51229;51.980;6.722;2022-08-21T15:05:08;4.53;;;1.80;;
64795;SDS011;51229;51.980;6.722;2022-08-21T15:07:33;3.88;;;1.70;;
64795;SDS011;51229;51.980;6.722;2022-08-21T15:09:59;5.53;;;1.63;;
64795;SDS011;51229;51.980;6.722;2022-08-21T15:12:24;4.57;;;1.60;;
64795;SDS011;51229;51.980;6.722;2022-08-21T15:14:50;3.95;;;1.42;;
64795;SDS011;51229;51.980;6.722;2022-08-21T15:17:16;4.30;;;1.63;;
64795;SDS011;51229;51.980;6.722;2022-08-21T15:19:42;4.80;;;1.58;;
64795;SDS011;51229;51.980;6.722;2022-08-21T15:22:08;4.40;;;1.42;;
64795;SDS011;51229;51.980;6.722;2022-08-21T15:24:33;5.10;;;1.80;;
64795;SDS011;51229;51.980;6.722;2022-08-21T15:27:00;6.47;;;1.95;;
64795;SDS011;51229;51.980;6.722;2022-08-21T15:29:27;4.75;;;1.70;;
64795;SDS011;51229;51.980;6.722;2022-08-21T15:32:02;5.05;;;1.55;;
64795;SDS011;51229;51.980;6.722;2022-08-21T15:34:41;8.13;;;1.95;;
64795;SDS011;51229;51.980;6.722;2022-08-21T15:37:06;5.57;;;1.50;;
64795;SDS011;51229;51.980;6.722;2022-08-21T15:39:35;5.65;;;1.70;;
64795;SDS011;51229;51.980;6.722;2022-08-21T15:42:02;4.63;;;1.80;;
64795;SDS011;51229;51.980;6.722;2022-08-21T15:44:28;5.82;;;1.90;;
64795;SDS011;51229;51.980;6.722;2022-08-21T15:46:54;4.55;;;1.67;;
64795;SDS011;51229;51.980;6.722;2022-08-21T15:49:20;6.22;;;1.60;;
64795;SDS011;51229;51.980;6.722;2022-08-21T15:51:45;5.32;;;1.90;;
64795;SDS011;51229;51.980;6.722;2022-08-21T15:54:11;4.45;;;1.85;;
64795;SDS011;51229;51.980;6.722;2022-08-21T15:56:37;4.00;;;1.60;;
64795;SDS011;51229;51.980;6.722;2022-08-21T15:59:13;6.45;;;1.70;;
64795;SDS011;51229;51.980;6.722;2022-08-21T16:01:43;6.47;;;1.73;;
64795;SDS011;51229;51.980;6.722;2022-08-21T16:04:09;4.32;;;1.77;;
64795;SDS011;51229;51.980;6.722;2022-08-21T16:06:37;5.03;;;1.70;;
64795;SDS011;51229;51.980;6.722;2022-08-21T16:09:03;5.57;;;1.80;;
64795;SDS011;51229;51.980;6.722;2022-08-21T16:11:29;4.70;;;1.60;;
64795;SDS011;51229;51.980;6.722;2022-08-21T16:13:54;4.22;;;2.08;;
64795;SDS011;51229;51.980;6.722;2022-08-21T16:16:21;4.47;;;1.70;;
64795;SDS011;51229;51.980;6.722;2022-08-21T16:18:49;5.30;;;1.70;;
64795;SDS011;51229;51.980;6.722;2022-08-21T16:21:15;4.80;;;1.67;;